WetterOnline ( http://www.wetteronline.de )

Wetter aktuell Mt. Scuro

Aktuelles Wetter: Monte Scuro (1720m)

6-stündlich | Neueste Meldungen
Ortszeit Temperatur Wetter
Mo, 25.06. 14:00 11.0° C wolkig
Mo, 25.06. 8:00 10.4° C bewölkt
Mo, 25.06. 2:00 9.0° C leicht bewölkt
So, 24.06. 20:00 11.4° C bewölkt
So, 24.06. 14:00 13.0° C wolkig
So, 24.06. 8:00 8.8° C bewölkt
So, 24.06. 2:00 11.0° C leicht bewölkt
Sa, 23.06. 20:00 11.2° C wolkig
Ortszeit Temperatur Wetter
Mo, 25.06. 19:00 10.4° C wolkig
Mo, 25.06. 18:55 10° C leicht bewölkt
Mo, 25.06. 18:00 10.4° C wolkig
Mo, 25.06. 17:55 10° C leicht bewölkt
Mo, 25.06. 17:00 11.4° C wolkig
Mo, 25.06. 16:55 11° C leicht bewölkt
Mo, 25.06. 16:00 11.0° C wolkig
Mo, 25.06. 15:55 11° C leicht bewölkt
Mo, 25.06. 15:00 11.2° C wolkig
Ortszeit Relative Feuchte Sichtweite
Mo, 25.06. 14:00 76% 20 km
Mo, 25.06. 8:00 95% 8 km
Mo, 25.06. 2:00 90% 10 km
So, 24.06. 20:00 90% 10 km
So, 24.06. 14:00 83% 1.2 km
So, 24.06. 8:00 60% 15 km
So, 24.06. 2:00 70% 15 km
Sa, 23.06. 20:00 85% 20 km
Ortszeit Relative Feuchte Sichtweite
Mo, 25.06. 19:00 85% 20 km
Mo, 25.06. 18:55 87% >10 km
Mo, 25.06. 18:00 84% 20 km
Mo, 25.06. 17:55 87% >10 km
Mo, 25.06. 17:00 76% 20 km
Mo, 25.06. 16:55 76% >10 km
Mo, 25.06. 16:00 74% 20 km
Mo, 25.06. 15:55 76% >10 km
Mo, 25.06. 15:00 69% 20 km
Ortszeit Niederschlagsmenge Niederschlagsart
Mo, 25.06. 14:00 0.0 l/m2 in 6 Std. -
Mo, 25.06. 8:00 0.0 l/m2 in 12 Std. -
Mo, 25.06. 2:00 0.0 l/m2 in 6 Std. -
So, 24.06. 20:00 0.0 l/m2 in 12 Std. -
So, 24.06. 14:00 0.0 l/m2 in 6 Std. -
So, 24.06. 8:00 0.4 l/m2 in 12 Std. Regen, Nebel
So, 24.06. 2:00 0.0 l/m2 in 6 Std. -
Sa, 23.06. 20:00 0.0 l/m2 in 12 Std. -
Ortszeit Niederschlagsmenge Niederschlagsart
Mo, 25.06. 19:00 keine Meldung -
Mo, 25.06. 18:55 keine Meldung -
Mo, 25.06. 18:00 keine Meldung -
Mo, 25.06. 17:55 keine Meldung -
Mo, 25.06. 17:00 keine Meldung -
Mo, 25.06. 16:55 keine Meldung -
Mo, 25.06. 16:00 keine Meldung -
Mo, 25.06. 15:55 keine Meldung -
Mo, 25.06. 15:00 keine Meldung -
Ortszeit Stärke Spitze Richtung
km/h Bft. km/h Grad Sektor
Mo, 25.06. 14:00 15 3 - 30° NO
Mo, 25.06. 8:00 7 2 - 100° O
Mo, 25.06. 2:00 11 2 - 100° O
So, 24.06. 20:00 7 2 - 100° O
So, 24.06. 14:00 19 3 - 210° SW
So, 24.06. 8:00 13 3 - 60° NO
So, 24.06. 2:00 6 1 - 60° NO
Sa, 23.06. 20:00 13 3 - 60° NO
Ortszeit Stärke Spitze Richtung
km/h Bft. km/h Grad Sektor
Mo, 25.06. 19:00 28 4 - 20° N
Mo, 25.06. 18:55 28 4 - 20° N
Mo, 25.06. 18:00 28 4 - 30° NO
Mo, 25.06. 17:55 28 4 - 30° NO
Mo, 25.06. 17:00 22 4 - 30° NO
Mo, 25.06. 16:55 22 4 - 30° NO
Mo, 25.06. 16:00 19 3 - 30° NO
Mo, 25.06. 15:55 19 3 - 30° NO
Mo, 25.06. 15:00 19 3 - 30° NO
Ortszeit Untergrenze Bedeckung Gattung
total tief tief mittel hoch
Mo, 25.06. 14:00 120 m 7/8 4/8 Sc As -
Mo, 25.06. 8:00 120 m 7/8 7/8 St Ns -
Mo, 25.06. 2:00 120 m 3/8 3/8 Cu - -
So, 24.06. 20:00 120 m 7/8 7/8 Sc Ns -
So, 24.06. 14:00 120 m 8/8 7/8 St Ns -
So, 24.06. 8:00 180 m 7/8 3/8 Sc Ac -
So, 24.06. 2:00 300 m 3/8 3/8 - Ac -
Sa, 23.06. 20:00 180 m 6/8 6/8 Sc - -
Ortszeit Bedeckungsgrad in Achtel und Wolkenuntergrenze
Mo, 25.06. 19:00 2(120m) 5(1800m)
Mo, 25.06. 18:55 1-2(120m)
Mo, 25.06. 18:00 3(150m) 5(1800m)
Mo, 25.06. 17:55 3-4(150m)
Mo, 25.06. 17:00 4(120m) 3(1800m)
Mo, 25.06. 16:55 3-4(120m)
Mo, 25.06. 16:00 3(120m) 5(1800m)
Mo, 25.06. 15:55 3-4(120m)
Mo, 25.06. 15:00 3(120m) 5(1800m)
Ortszeit Stationsdruck (hPa) Tendenz (hPa in 3 Std.)
Mo, 25.06. 14:00 829 0,0
Mo, 25.06. 8:00 829 0,0
Mo, 25.06. 2:00 830 - 1,0
So, 24.06. 20:00 831 0,0
So, 24.06. 14:00 832 0,0
So, 24.06. 8:00 831 - 0,2
So, 24.06. 2:00 832 0,0
Sa, 23.06. 20:00 832 - 0,6
Ortszeit Stationsdruck (hPa) Tendenz (hPa in 3 Std.)
Mo, 25.06. 19:00 829 - 0,4
Mo, 25.06. 18:55 - keine Meldung
Mo, 25.06. 18:00 829 - 0,2
Mo, 25.06. 17:55 - keine Meldung
Mo, 25.06. 17:00 829 0,0
Mo, 25.06. 16:55 - keine Meldung
Mo, 25.06. 16:00 829 0,0
Mo, 25.06. 15:55 - keine Meldung
Mo, 25.06. 15:00 829 0,0
Ortszeit Schneehöhe (cm)
Mo, 25.06. 14:00 -
Mo, 25.06. 8:00 0
Mo, 25.06. 2:00 -
So, 24.06. 20:00 -
So, 24.06. 14:00 -
So, 24.06. 8:00 -
So, 24.06. 2:00 -
Sa, 23.06. 20:00 -
Ortszeit Schneehöhe (cm)
Mo, 25.06. 19:00 -
Mo, 25.06. 18:55 -
Mo, 25.06. 18:00 -
Mo, 25.06. 17:55 -
Mo, 25.06. 17:00 -
Mo, 25.06. 16:55 -
Mo, 25.06. 16:00 -
Mo, 25.06. 15:55 -
Mo, 25.06. 15:00 -
Link zu dieser Seite / Seite empfehlen

Das Wetter in ...